sensor_id;sensor_type;location;lat;lon;timestamp;temperature;humidity
5344;DHT22;2694;48.950;8.970;2022-08-06T00:00:53;21.40;92.20
5344;DHT22;2694;48.950;8.970;2022-08-06T00:03:20;21.40;92.00
5344;DHT22;2694;48.950;8.970;2022-08-06T00:05:47;21.40;92.00
5344;DHT22;2694;48.950;8.970;2022-08-06T00:10:40;21.40;92.00
5344;DHT22;2694;48.950;8.970;2022-08-06T00:13:07;21.30;92.20
5344;DHT22;2694;48.950;8.970;2022-08-06T00:15:35;21.40;92.30
5344;DHT22;2694;48.950;8.970;2022-08-06T00:18:02;21.30;92.50
5344;DHT22;2694;48.950;8.970;2022-08-06T00:20:29;21.00;92.30
5344;DHT22;2694;48.950;8.970;2022-08-06T00:22:56;20.90;92.60
5344;DHT22;2694;48.950;8.970;2022-08-06T00:25:23;20.90;92.40
5344;DHT22;2694;48.950;8.970;2022-08-06T00:27:50;21.00;92.50
5344;DHT22;2694;48.950;8.970;2022-08-06T00:30:17;21.00;92.30
5344;DHT22;2694;48.950;8.970;2022-08-06T00:35:13;20.90;92.40
5344;DHT22;2694;48.950;8.970;2022-08-06T00:37:39;20.90;92.20
5344;DHT22;2694;48.950;8.970;2022-08-06T00:40:07;20.90;92.40
5344;DHT22;2694;48.950;8.970;2022-08-06T00:42:34;20.80;92.20
5344;DHT22;2694;48.950;8.970;2022-08-06T00:45:01;20.70;92.40
5344;DHT22;2694;48.950;8.970;2022-08-06T00:47:29;20.50;92.40
5344;DHT22;2694;48.950;8.970;2022-08-06T00:49:57;20.60;92.60
5344;DHT22;2694;48.950;8.970;2022-08-06T00:52:24;20.60;92.70
5344;DHT22;2694;48.950;8.970;2022-08-06T00:54:51;20.70;92.60
5344;DHT22;2694;48.950;8.970;2022-08-06T00:57:18;20.60;92.60
5344;DHT22;2694;48.950;8.970;2022-08-06T00:59:45;20.50;92.80
5344;DHT22;2694;48.950;8.970;2022-08-06T01:02:11;20.60;92.70
5344;DHT22;2694;48.950;8.970;2022-08-06T01:04:38;20.60;93.10
5344;DHT22;2694;48.950;8.970;2022-08-06T01:07:06;20.70;92.90
5344;DHT22;2694;48.950;8.970;2022-08-06T01:09:33;20.60;93.00
5344;DHT22;2694;48.950;8.970;2022-08-06T01:12:00;20.50;93.00
5344;DHT22;2694;48.950;8.970;2022-08-06T01:14:27;20.50;93.20
5344;DHT22;2694;48.950;8.970;2022-08-06T01:16:58;20.40;93.20
5344;DHT22;2694;48.950;8.970;2022-08-06T01:19:40;20.30;93.40
5344;DHT22;2694;48.950;8.970;2022-08-06T01:22:19;20.20;93.70
5344;DHT22;2694;48.950;8.970;2022-08-06T01:25:10;20.20;94.00
5344;DHT22;2694;48.950;8.970;2022-08-06T01:27:46;20.20;94.00
5344;DHT22;2694;48.950;8.970;2022-08-06T01:30:18;20.20;94.10
5344;DHT22;2694;48.950;8.970;2022-08-06T01:32:48;20.20;94.10
5344;DHT22;2694;48.950;8.970;2022-08-06T01:35:19;20.00;94.10
5344;DHT22;2694;48.950;8.970;2022-08-06T01:37:53;20.10;94.40
5344;DHT22;2694;48.950;8.970;2022-08-06T01:40:28;20.10;94.50
5344;DHT22;2694;48.950;8.970;2022-08-06T01:42:57;20.00;94.60
5344;DHT22;2694;48.950;8.970;2022-08-06T01:45:27;19.90;94.80
5344;DHT22;2694;48.950;8.970;2022-08-06T01:47:59;19.90;94.90
5344;DHT22;2694;48.950;8.970;2022-08-06T01:50:30;19.90;95.20
5344;DHT22;2694;48.950;8.970;2022-08-06T01:53:00;19.80;95.20
5344;DHT22;2694;48.950;8.970;2022-08-06T01:55:30;19.90;95.40
5344;DHT22;2694;48.950;8.970;2022-08-06T01:58:01;19.80;95.30
5344;DHT22;2694;48.950;8.970;2022-08-06T02:00:32;19.80;95.60
5344;DHT22;2694;48.950;8.970;2022-08-06T02:03:07;19.70;95.90
5344;DHT22;2694;48.950;8.970;2022-08-06T02:05:35;19.80;95.90
5344;DHT22;2694;48.950;8.970;2022-08-06T02:08:04;19.70;95.90
5344;DHT22;2694;48.950;8.970;2022-08-06T02:10:34;19.70;96.10
5344;DHT22;2694;48.950;8.970;2022-08-06T02:13:03;19.70;96.20
5344;DHT22;2694;48.950;8.970;2022-08-06T02:15:32;19.70;96.20
5344;DHT22;2694;48.950;8.970;2022-08-06T02:18:02;19.60;96.40
5344;DHT22;2694;48.950;8.970;2022-08-06T02:20:33;19.70;96.40
5344;DHT22;2694;48.950;8.970;2022-08-06T02:23:02;19.70;96.50
5344;DHT22;2694;48.950;8.970;2022-08-06T02:25:31;19.80;96.50
5344;DHT22;2694;48.950;8.970;2022-08-06T02:27:59;19.60;96.70
5344;DHT22;2694;48.950;8.970;2022-08-06T02:30:33;19.60;96.80
5344;DHT22;2694;48.950;8.970;2022-08-06T02:33:01;19.70;96.90
5344;DHT22;2694;48.950;8.970;2022-08-06T02:35:29;19.70;96.80
5344;DHT22;2694;48.950;8.970;2022-08-06T02:38:00;19.70;97.00
5344;DHT22;2694;48.950;8.970;2022-08-06T02:40:31;19.70;97.10
5344;DHT22;2694;48.950;8.970;2022-08-06T02:43:04;19.60;97.00
5344;DHT22;2694;48.950;8.970;2022-08-06T02:45:35;19.50;97.20
5344;DHT22;2694;48.950;8.970;2022-08-06T02:48:04;19.50;97.40
5344;DHT22;2694;48.950;8.970;2022-08-06T02:50:36;19.50;97.70
5344;DHT22;2694;48.950;8.970;2022-08-06T02:53:06;19.50;97.70
5344;DHT22;2694;48.950;8.970;2022-08-06T02:55:35;19.50;97.70
5344;DHT22;2694;48.950;8.970;2022-08-06T02:58:17;19.40;98.00
5344;DHT22;2694;48.950;8.970;2022-08-06T03:00:49;19.40;98.10
5344;DHT22;2694;48.950;8.970;2022-08-06T03:05:45;19.20;98.40
5344;DHT22;2694;48.950;8.970;2022-08-06T03:08:16;19.30;98.60
5344;DHT22;2694;48.950;8.970;2022-08-06T03:10:45;19.30;98.40
5344;DHT22;2694;48.950;8.970;2022-08-06T03:13:13;19.20;98.70
5344;DHT22;2694;48.950;8.970;2022-08-06T03:15:42;19.20;98.70
5344;DHT22;2694;48.950;8.970;2022-08-06T03:18:12;19.20;98.80
5344;DHT22;2694;48.950;8.970;2022-08-06T03:20:42;19.20;98.80
5344;DHT22;2694;48.950;8.970;2022-08-06T03:23:11;19.20;98.80
5344;DHT22;2694;48.950;8.970;2022-08-06T03:25:39;19.20;98.80
5344;DHT22;2694;48.950;8.970;2022-08-06T03:28:06;19.40;98.80
5344;DHT22;2694;48.950;8.970;2022-08-06T03:30:35;19.30;98.60
5344;DHT22;2694;48.950;8.970;2022-08-06T03:33:05;19.30;98.90
5344;DHT22;2694;48.950;8.970;2022-08-06T03:35:35;19.20;98.70
5344;DHT22;2694;48.950;8.970;2022-08-06T03:38:02;19.20;98.90
5344;DHT22;2694;48.950;8.970;2022-08-06T03:40:30;19.30;98.90
5344;DHT22;2694;48.950;8.970;2022-08-06T03:42:59;19.40;98.70
5344;DHT22;2694;48.950;8.970;2022-08-06T03:45:26;19.30;99.00
5344;DHT22;2694;48.950;8.970;2022-08-06T03:47:55;19.20;99.10
5344;DHT22;2694;48.950;8.970;2022-08-06T03:50:27;19.20;99.20
5344;DHT22;2694;48.950;8.970;2022-08-06T03:52:59;19.10;99.40
5344;DHT22;2694;48.950;8.970;2022-08-06T03:55:30;19.10;99.60
5344;DHT22;2694;48.950;8.970;2022-08-06T03:58:01;19.20;99.50
5344;DHT22;2694;48.950;8.970;2022-08-06T04:00:32;19.10;99.60
5344;DHT22;2694;48.950;8.970;2022-08-06T04:03:00;19.10;99.70
5344;DHT22;2694;48.950;8.970;2022-08-06T04:05:30;19.10;99.70
5344;DHT22;2694;48.950;8.970;2022-08-06T04:08:03;19.00;99.80
5344;DHT22;2694;48.950;8.970;2022-08-06T04:10:33;19.10;99.90
5344;DHT22;2694;48.950;8.970;2022-08-06T04:13:05;19.00;99.90
5344;DHT22;2694;48.950;8.970;2022-08-06T04:15:33;19.10;99.90
5344;DHT22;2694;48.950;8.970;2022-08-06T04:18:01;19.10;99.90
5344;DHT22;2694;48.950;8.970;2022-08-06T04:20:28;19.00;99.90
5344;DHT22;2694;48.950;8.970;2022-08-06T04:25:27;19.00;99.90
5344;DHT22;2694;48.950;8.970;2022-08-06T04:27:55;18.90;99.90
5344;DHT22;2694;48.950;8.970;2022-08-06T04:30:24;19.00;99.90
5344;DHT22;2694;48.950;8.970;2022-08-06T04:32:53;18.90;99.90
5344;DHT22;2694;48.950;8.970;2022-08-06T04:35:21;18.90;99.90
5344;DHT22;2694;48.950;8.970;2022-08-06T04:37:48;18.80;99.90
5344;DHT22;2694;48.950;8.970;2022-08-06T04:40:16;18.80;99.90
5344;DHT22;2694;48.950;8.970;2022-08-06T04:42:45;18.70;99.90
5344;DHT22;2694;48.950;8.970;2022-08-06T04:45:12;18.70;99.90
5344;DHT22;2694;48.950;8.970;2022-08-06T04:50:06;18.70;99.90
5344;DHT22;2694;48.950;8.970;2022-08-06T04:52:33;18.50;99.90
5344;DHT22;2694;48.950;8.970;2022-08-06T04:55:00;18.50;99.90
5344;DHT22;2694;48.950;8.970;2022-08-06T04:57:27;18.50;99.90
5344;DHT22;2694;48.950;8.970;2022-08-06T04:59:55;18.50;99.90
5344;DHT22;2694;48.950;8.970;2022-08-06T05:04:49;18.40;99.90
5344;DHT22;2694;48.950;8.970;2022-08-06T05:07:23;18.40;99.90
5344;DHT22;2694;48.950;8.970;2022-08-06T05:09:50;18.40;99.90
5344;DHT22;2694;48.950;8.970;2022-08-06T05:12:21;18.50;99.90
5344;DHT22;2694;48.950;8.970;2022-08-06T05:17:25;18.40;99.90
5344;DHT22;2694;48.950;8.970;2022-08-06T05:19:57;18.50;99.90
5344;DHT22;2694;48.950;8.970;2022-08-06T05:22:25;18.60;99.90
5344;DHT22;2694;48.950;8.970;2022-08-06T05:24:53;19.00;99.90
5344;DHT22;2694;48.950;8.970;2022-08-06T05:27:21;19.30;99.90
5344;DHT22;2694;48.950;8.970;2022-08-06T05:29:48;19.70;99.90
5344;DHT22;2694;48.950;8.970;2022-08-06T05:32:15;19.60;99.90
5344;DHT22;2694;48.950;8.970;2022-08-06T05:34:46;19.40;99.90
5344;DHT22;2694;48.950;8.970;2022-08-06T05:37:13;19.50;99.90
5344;DHT22;2694;48.950;8.970;2022-08-06T05:39:40;19.80;99.90
5344;DHT22;2694;48.950;8.970;2022-08-06T05:42:07;19.90;99.90
5344;DHT22;2694;48.950;8.970;2022-08-06T05:44:33;19.50;99.90
5344;DHT22;2694;48.950;8.970;2022-08-06T05:47:05;19.50;99.90
5344;DHT22;2694;48.950;8.970;2022-08-06T05:49:38;19.40;99.90
5344;DHT22;2694;48.950;8.970;2022-08-06T05:52:10;19.30;99.90
5344;DHT22;2694;48.950;8.970;2022-08-06T05:59:43;19.50;99.90
5344;DHT22;2694;48.950;8.970;2022-08-06T06:02:12;19.50;99.90
5344;DHT22;2694;48.950;8.970;2022-08-06T06:04:40;19.50;99.90
5344;DHT22;2694;48.950;8.970;2022-08-06T06:09:36;19.80;99.90
5344;DHT22;2694;48.950;8.970;2022-08-06T06:14:35;19.70;99.30
5344;DHT22;2694;48.950;8.970;2022-08-06T06:17:19;19.80;99.30
5344;DHT22;2694;48.950;8.970;2022-08-06T06:19:57;19.70;98.90
5344;DHT22;2694;48.950;8.970;2022-08-06T06:22:30;19.70;99.00
5344;DHT22;2694;48.950;8.970;2022-08-06T06:30:03;19.70;98.00
5344;DHT22;2694;48.950;8.970;2022-08-06T06:32:41;19.90;97.90
5344;DHT22;2694;48.950;8.970;2022-08-06T06:35:19;20.20;97.60
5344;DHT22;2694;48.950;8.970;2022-08-06T06:37:54;20.50;96.60
5344;DHT22;2694;48.950;8.970;2022-08-06T06:40:39;20.60;97.40
5344;DHT22;2694;48.950;8.970;2022-08-06T06:45:42;20.80;95.70
5344;DHT22;2694;48.950;8.970;2022-08-06T06:48:19;21.00;95.90
5344;DHT22;2694;48.950;8.970;2022-08-06T06:50:51;21.00;95.30
5344;DHT22;2694;48.950;8.970;2022-08-06T06:53:24;20.90;94.50
5344;DHT22;2694;48.950;8.970;2022-08-06T06:58:28;20.80;94.00
5344;DHT22;2694;48.950;8.970;2022-08-06T07:00:59;20.80;92.70
5344;DHT22;2694;48.950;8.970;2022-08-06T07:03:26;20.80;93.00
5344;DHT22;2694;48.950;8.970;2022-08-06T07:08:26;21.00;92.50
5344;DHT22;2694;48.950;8.970;2022-08-06T07:10:55;21.20;92.10
5344;DHT22;2694;48.950;8.970;2022-08-06T07:13:23;21.30;91.70
5344;DHT22;2694;48.950;8.970;2022-08-06T07:15:51;21.30;91.80
5344;DHT22;2694;48.950;8.970;2022-08-06T07:20:46;21.50;91.40
5344;DHT22;2694;48.950;8.970;2022-08-06T07:23:15;22.20;90.80
5344;DHT22;2694;48.950;8.970;2022-08-06T07:28:14;22.30;90.60
5344;DHT22;2694;48.950;8.970;2022-08-06T07:33:10;21.80;90.00
5344;DHT22;2694;48.950;8.970;2022-08-06T07:35:40;22.10;90.40
5344;DHT22;2694;48.950;8.970;2022-08-06T07:40:40;22.10;90.60
5344;DHT22;2694;48.950;8.970;2022-08-06T07:43:12;22.30;90.70
5344;DHT22;2694;48.950;8.970;2022-08-06T07:45:40;22.60;90.40
5344;DHT22;2694;48.950;8.970;2022-08-06T07:48:09;22.70;90.40
5344;DHT22;2694;48.950;8.970;2022-08-06T07:53:06;22.60;90.40
5344;DHT22;2694;48.950;8.970;2022-08-06T07:55:34;22.80;89.70
5344;DHT22;2694;48.950;8.970;2022-08-06T07:58:02;22.70;89.20
5344;DHT22;2694;48.950;8.970;2022-08-06T08:00:31;22.70;86.00
5344;DHT22;2694;48.950;8.970;2022-08-06T08:02:59;22.50;86.50
5344;DHT22;2694;48.950;8.970;2022-08-06T08:08:29;22.80;85.50
5344;DHT22;2694;48.950;8.970;2022-08-06T08:13:24;23.00;84.90
5344;DHT22;2694;48.950;8.970;2022-08-06T08:15:55;22.90;81.60
5344;DHT22;2694;48.950;8.970;2022-08-06T08:18:28;23.00;82.80
5344;DHT22;2694;48.950;8.970;2022-08-06T08:20:56;23.40;82.80
5344;DHT22;2694;48.950;8.970;2022-08-06T08:28:19;24.10;77.80
5344;DHT22;2694;48.950;8.970;2022-08-06T08:30:46;24.00;77.30
5344;DHT22;2694;48.950;8.970;2022-08-06T08:33:14;23.90;78.30
5344;DHT22;2694;48.950;8.970;2022-08-06T08:35:41;24.00;76.30
5344;DHT22;2694;48.950;8.970;2022-08-06T08:38:08;24.30;76.40
5344;DHT22;2694;48.950;8.970;2022-08-06T08:40:36;24.50;75.70
5344;DHT22;2694;48.950;8.970;2022-08-06T08:45:32;24.60;75.10
5344;DHT22;2694;48.950;8.970;2022-08-06T08:48:01;24.90;73.50
5344;DHT22;2694;48.950;8.970;2022-08-06T08:50:31;25.00;72.10
5344;DHT22;2694;48.950;8.970;2022-08-06T08:53:03;25.00;73.70
5344;DHT22;2694;48.950;8.970;2022-08-06T08:55:31;24.70;72.90
5344;DHT22;2694;48.950;8.970;2022-08-06T08:57:58;24.80;73.90
5344;DHT22;2694;48.950;8.970;2022-08-06T09:00:25;25.00;72.60
5344;DHT22;2694;48.950;8.970;2022-08-06T09:02:52;25.10;70.90
5344;DHT22;2694;48.950;8.970;2022-08-06T09:05:20;25.20;72.30
5344;DHT22;2694;48.950;8.970;2022-08-06T09:07:49;25.70;71.40
5344;DHT22;2694;48.950;8.970;2022-08-06T09:10:16;25.80;66.90
5344;DHT22;2694;48.950;8.970;2022-08-06T09:12:43;25.60;68.20
5344;DHT22;2694;48.950;8.970;2022-08-06T09:15:12;25.60;67.40
5344;DHT22;2694;48.950;8.970;2022-08-06T09:17:41;26.20;67.80
5344;DHT22;2694;48.950;8.970;2022-08-06T09:20:09;26.00;67.90
5344;DHT22;2694;48.950;8.970;2022-08-06T09:22:35;26.20;65.30
5344;DHT22;2694;48.950;8.970;2022-08-06T09:25:04;26.10;67.30
5344;DHT22;2694;48.950;8.970;2022-08-06T09:27:34;26.20;65.20
5344;DHT22;2694;48.950;8.970;2022-08-06T09:30:04;26.50;64.60
5344;DHT22;2694;48.950;8.970;2022-08-06T09:32:42;26.30;66.10
5344;DHT22;2694;48.950;8.970;2022-08-06T09:35:19;26.60;63.80
5344;DHT22;2694;48.950;8.970;2022-08-06T09:37:46;26.90;63.90
5344;DHT22;2694;48.950;8.970;2022-08-06T09:40:16;26.40;63.50
5344;DHT22;2694;48.950;8.970;2022-08-06T09:42:45;26.30;63.50
5344;DHT22;2694;48.950;8.970;2022-08-06T09:45:15;26.60;64.30
5344;DHT22;2694;48.950;8.970;2022-08-06T09:47:42;27.20;64.60
5344;DHT22;2694;48.950;8.970;2022-08-06T09:50:09;27.70;64.20
5344;DHT22;2694;48.950;8.970;2022-08-06T09:52:36;27.90;62.50
5344;DHT22;2694;48.950;8.970;2022-08-06T09:55:03;27.80;61.40
5344;DHT22;2694;48.950;8.970;2022-08-06T09:57:43;27.80;61.50
5344;DHT22;2694;48.950;8.970;2022-08-06T10:00:23;28.40;60.40
5344;DHT22;2694;48.950;8.970;2022-08-06T10:02:55;28.60;60.00
5344;DHT22;2694;48.950;8.970;2022-08-06T10:05:23;28.70;58.90
5344;DHT22;2694;48.950;8.970;2022-08-06T10:08:06;28.30;59.50
5344;DHT22;2694;48.950;8.970;2022-08-06T10:10:44;28.10;60.10
5344;DHT22;2694;48.950;8.970;2022-08-06T10:13:18;27.80;58.50
5344;DHT22;2694;48.950;8.970;2022-08-06T10:15:46;27.30;60.10
5344;DHT22;2694;48.950;8.970;2022-08-06T10:18:34;26.90;60.10
5344;DHT22;2694;48.950;8.970;2022-08-06T10:21:03;26.50;60.70
5344;DHT22;2694;48.950;8.970;2022-08-06T10:25:59;27.00;60.40
5344;DHT22;2694;48.950;8.970;2022-08-06T10:28:29;27.20;59.90
5344;DHT22;2694;48.950;8.970;2022-08-06T10:30:56;27.40;60.00
5344;DHT22;2694;48.950;8.970;2022-08-06T10:33:24;27.60;58.90
5344;DHT22;2694;48.950;8.970;2022-08-06T10:35:59;28.00;59.40
5344;DHT22;2694;48.950;8.970;2022-08-06T10:38:27;28.50;57.50
5344;DHT22;2694;48.950;8.970;2022-08-06T10:40:55;28.50;56.70
5344;DHT22;2694;48.950;8.970;2022-08-06T10:43:24;28.20;56.90
5344;DHT22;2694;48.950;8.970;2022-08-06T10:45:52;28.20;57.90
5344;DHT22;2694;48.950;8.970;2022-08-06T10:48:20;27.80;56.70
5344;DHT22;2694;48.950;8.970;2022-08-06T10:50:49;27.90;56.70
5344;DHT22;2694;48.950;8.970;2022-08-06T10:53:16;28.00;56.50
5344;DHT22;2694;48.950;8.970;2022-08-06T10:55:43;28.20;56.60
5344;DHT22;2694;48.950;8.970;2022-08-06T10:58:11;28.30;56.80
5344;DHT22;2694;48.950;8.970;2022-08-06T11:00:38;28.20;57.60
5344;DHT22;2694;48.950;8.970;2022-08-06T11:03:15;28.40;57.60
5344;DHT22;2694;48.950;8.970;2022-08-06T11:05:46;28.80;56.90
5344;DHT22;2694;48.950;8.970;2022-08-06T11:08:38;28.80;55.00
5344;DHT22;2694;48.950;8.970;2022-08-06T11:11:16;28.50;55.70
5344;DHT22;2694;48.950;8.970;2022-08-06T11:13:58;28.50;55.70
5344;DHT22;2694;48.950;8.970;2022-08-06T11:16:27;28.30;55.70
5344;DHT22;2694;48.950;8.970;2022-08-06T11:19:05;28.60;55.70
5344;DHT22;2694;48.950;8.970;2022-08-06T11:21:36;28.50;54.40
5344;DHT22;2694;48.950;8.970;2022-08-06T11:24:04;28.70;55.30
5344;DHT22;2694;48.950;8.970;2022-08-06T11:26:33;28.60;54.50
5344;DHT22;2694;48.950;8.970;2022-08-06T11:29:01;28.60;54.50
5344;DHT22;2694;48.950;8.970;2022-08-06T11:31:46;28.40;54.00
5344;DHT22;2694;48.950;8.970;2022-08-06T11:34:16;28.60;55.30
5344;DHT22;2694;48.950;8.970;2022-08-06T11:36:46;28.90;54.70
5344;DHT22;2694;48.950;8.970;2022-08-06T11:41:49;28.10;56.10
5344;DHT22;2694;48.950;8.970;2022-08-06T11:44:17;28.40;55.30
5344;DHT22;2694;48.950;8.970;2022-08-06T11:46:45;28.70;54.60
5344;DHT22;2694;48.950;8.970;2022-08-06T11:51:53;29.00;53.50
5344;DHT22;2694;48.950;8.970;2022-08-06T11:54:21;28.70;54.00
5344;DHT22;2694;48.950;8.970;2022-08-06T11:57:20;28.60;54.50
5344;DHT22;2694;48.950;8.970;2022-08-06T12:00:02;28.40;53.80
5344;DHT22;2694;48.950;8.970;2022-08-06T12:02:50;28.00;55.50
5344;DHT22;2694;48.950;8.970;2022-08-06T12:05:39;28.10;53.80
5344;DHT22;2694;48.950;8.970;2022-08-06T12:08:30;28.20;54.50
5344;DHT22;2694;48.950;8.970;2022-08-06T12:11:26;28.20;54.60
5344;DHT22;2694;48.950;8.970;2022-08-06T12:14:00;28.20;53.80
5344;DHT22;2694;48.950;8.970;2022-08-06T12:16:36;27.70;55.60
5344;DHT22;2694;48.950;8.970;2022-08-06T12:19:05;27.80;54.90
5344;DHT22;2694;48.950;8.970;2022-08-06T12:21:34;27.70;55.20
5344;DHT22;2694;48.950;8.970;2022-08-06T12:24:03;27.80;55.60
5344;DHT22;2694;48.950;8.970;2022-08-06T12:26:31;27.80;54.60
5344;DHT22;2694;48.950;8.970;2022-08-06T12:29:01;28.10;54.30
5344;DHT22;2694;48.950;8.970;2022-08-06T12:31:31;28.90;53.40
5344;DHT22;2694;48.950;8.970;2022-08-06T12:33:59;29.40;53.10
5344;DHT22;2694;48.950;8.970;2022-08-06T12:36:31;29.30;54.40
5344;DHT22;2694;48.950;8.970;2022-08-06T12:39:01;29.00;52.80
5344;DHT22;2694;48.950;8.970;2022-08-06T12:41:37;28.70;53.30
5344;DHT22;2694;48.950;8.970;2022-08-06T12:44:06;28.30;53.00
5344;DHT22;2694;48.950;8.970;2022-08-06T12:46:33;28.40;52.50
5344;DHT22;2694;48.950;8.970;2022-08-06T12:49:00;28.80;53.70
5344;DHT22;2694;48.950;8.970;2022-08-06T12:51:27;28.70;53.50
5344;DHT22;2694;48.950;8.970;2022-08-06T12:53:57;28.60;54.80
5344;DHT22;2694;48.950;8.970;2022-08-06T12:56:29;28.50;52.90
5344;DHT22;2694;48.950;8.970;2022-08-06T12:58:56;28.80;52.20
5344;DHT22;2694;48.950;8.970;2022-08-06T13:03:54;28.50;53.90
5344;DHT22;2694;48.950;8.970;2022-08-06T13:06:25;28.70;53.00
5344;DHT22;2694;48.950;8.970;2022-08-06T13:08:55;28.90;53.10
5344;DHT22;2694;48.950;8.970;2022-08-06T13:11:33;28.90;52.50
5344;DHT22;2694;48.950;8.970;2022-08-06T13:14:08;28.80;53.50
5344;DHT22;2694;48.950;8.970;2022-08-06T13:16:40;28.70;52.40
5344;DHT22;2694;48.950;8.970;2022-08-06T13:19:09;28.40;52.70
5344;DHT22;2694;48.950;8.970;2022-08-06T13:21:36;28.20;52.70
5344;DHT22;2694;48.950;8.970;2022-08-06T13:24:05;28.50;52.60
5344;DHT22;2694;48.950;8.970;2022-08-06T13:26:46;28.40;52.10
5344;DHT22;2694;48.950;8.970;2022-08-06T13:29:15;28.40;53.50
5344;DHT22;2694;48.950;8.970;2022-08-06T13:31:43;28.60;53.00
5344;DHT22;2694;48.950;8.970;2022-08-06T13:34:11;28.80;52.90
5344;DHT22;2694;48.950;8.970;2022-08-06T13:36:40;29.00;52.40
5344;DHT22;2694;48.950;8.970;2022-08-06T13:41:46;28.90;52.70
5344;DHT22;2694;48.950;8.970;2022-08-06T13:44:29;28.90;51.60
5344;DHT22;2694;48.950;8.970;2022-08-06T13:46:56;29.20;51.70
5344;DHT22;2694;48.950;8.970;2022-08-06T13:49:23;29.30;51.60
5344;DHT22;2694;48.950;8.970;2022-08-06T13:51:50;29.00;51.50
5344;DHT22;2694;48.950;8.970;2022-08-06T13:54:17;29.00;51.90
5344;DHT22;2694;48.950;8.970;2022-08-06T13:56:46;28.70;51.20
5344;DHT22;2694;48.950;8.970;2022-08-06T13:59:13;28.90;51.30
5344;DHT22;2694;48.950;8.970;2022-08-06T14:01:41;29.10;50.20
5344;DHT22;2694;48.950;8.970;2022-08-06T14:04:07;28.50;51.40
5344;DHT22;2694;48.950;8.970;2022-08-06T14:11:29;29.00;49.80
5344;DHT22;2694;48.950;8.970;2022-08-06T14:13:57;29.00;50.30
5344;DHT22;2694;48.950;8.970;2022-08-06T14:16:23;28.70;50.10
5344;DHT22;2694;48.950;8.970;2022-08-06T14:18:50;28.50;50.00
5344;DHT22;2694;48.950;8.970;2022-08-06T14:21:17;28.30;49.80
5344;DHT22;2694;48.950;8.970;2022-08-06T14:23:44;28.30;51.00
5344;DHT22;2694;48.950;8.970;2022-08-06T14:26:11;28.30;51.30
5344;DHT22;2694;48.950;8.970;2022-08-06T14:28:38;28.40;50.90
5344;DHT22;2694;48.950;8.970;2022-08-06T14:31:06;28.60;51.00
5344;DHT22;2694;48.950;8.970;2022-08-06T14:33:33;28.70;49.90
5344;DHT22;2694;48.950;8.970;2022-08-06T14:36:00;28.90;49.50
5344;DHT22;2694;48.950;8.970;2022-08-06T14:38:27;28.80;50.00
5344;DHT22;2694;48.950;8.970;2022-08-06T14:40:54;29.00;49.10
5344;DHT22;2694;48.950;8.970;2022-08-06T14:43:38;29.20;49.60
5344;DHT22;2694;48.950;8.970;2022-08-06T14:46:25;28.90;48.70
5344;DHT22;2694;48.950;8.970;2022-08-06T14:48:53;29.00;50.10
5344;DHT22;2694;48.950;8.970;2022-08-06T14:51:20;28.70;48.90
5344;DHT22;2694;48.950;8.970;2022-08-06T14:56:14;27.80;49.90
5344;DHT22;2694;48.950;8.970;2022-08-06T14:58:41;28.00;49.50
5344;DHT22;2694;48.950;8.970;2022-08-06T15:01:09;28.00;49.30
5344;DHT22;2694;48.950;8.970;2022-08-06T15:03:37;27.80;49.40
5344;DHT22;2694;48.950;8.970;2022-08-06T15:06:04;27.70;49.80
5344;DHT22;2694;48.950;8.970;2022-08-06T15:08:31;27.70;49.10
5344;DHT22;2694;48.950;8.970;2022-08-06T15:10:58;27.80;49.60
5344;DHT22;2694;48.950;8.970;2022-08-06T15:13:25;27.90;48.60
5344;DHT22;2694;48.950;8.970;2022-08-06T15:15:51;28.20;49.50
5344;DHT22;2694;48.950;8.970;2022-08-06T15:18:18;28.00;48.60
5344;DHT22;2694;48.950;8.970;2022-08-06T15:20:47;28.30;48.20
5344;DHT22;2694;48.950;8.970;2022-08-06T15:23:14;28.40;48.60
5344;DHT22;2694;48.950;8.970;2022-08-06T15:25:41;28.30;48.60
5344;DHT22;2694;48.950;8.970;2022-08-06T15:28:08;28.40;47.90
5344;DHT22;2694;48.950;8.970;2022-08-06T15:30:35;28.10;48.60
5344;DHT22;2694;48.950;8.970;2022-08-06T15:33:02;28.10;49.50
5344;DHT22;2694;48.950;8.970;2022-08-06T15:35:29;28.20;48.90
5344;DHT22;2694;48.950;8.970;2022-08-06T15:37:57;28.50;48.00
5344;DHT22;2694;48.950;8.970;2022-08-06T15:40:24;28.50;47.60
5344;DHT22;2694;48.950;8.970;2022-08-06T15:42:50;28.60;47.60
5344;DHT22;2694;48.950;8.970;2022-08-06T15:45:20;28.30;48.00
5344;DHT22;2694;48.950;8.970;2022-08-06T15:50:13;27.90;48.20
5344;DHT22;2694;48.950;8.970;2022-08-06T15:52:40;27.90;48.50
5344;DHT22;2694;48.950;8.970;2022-08-06T15:55:09;27.80;48.20
5344;DHT22;2694;48.950;8.970;2022-08-06T15:57:36;27.80;48.50
5344;DHT22;2694;48.950;8.970;2022-08-06T16:00:04;27.60;47.60
5344;DHT22;2694;48.950;8.970;2022-08-06T16:02:31;27.60;48.40
5344;DHT22;2694;48.950;8.970;2022-08-06T16:04:58;27.60;48.10
5344;DHT22;2694;48.950;8.970;2022-08-06T16:07:25;27.70;48.10
5344;DHT22;2694;48.950;8.970;2022-08-06T16:09:52;27.80;47.70
5344;DHT22;2694;48.950;8.970;2022-08-06T16:12:20;27.70;47.40
5344;DHT22;2694;48.950;8.970;2022-08-06T16:17:14;27.40;47.80
5344;DHT22;2694;48.950;8.970;2022-08-06T16:19:41;27.20;47.30
5344;DHT22;2694;48.950;8.970;2022-08-06T16:22:08;27.00;47.90
5344;DHT22;2694;48.950;8.970;2022-08-06T16:24:35;27.00;48.40
5344;DHT22;2694;48.950;8.970;2022-08-06T16:27:01;27.10;49.10
5344;DHT22;2694;48.950;8.970;2022-08-06T16:29:32;27.10;48.00
5344;DHT22;2694;48.950;8.970;2022-08-06T16:34:29;27.00;47.60
5344;DHT22;2694;48.950;8.970;2022-08-06T16:36:56;26.80;47.20
5344;DHT22;2694;48.950;8.970;2022-08-06T16:39:23;26.70;48.00
5344;DHT22;2694;48.950;8.970;2022-08-06T16:41:50;26.50;48.30
5344;DHT22;2694;48.950;8.970;2022-08-06T16:44:17;26.40;47.90
5344;DHT22;2694;48.950;8.970;2022-08-06T16:46:45;26.30;48.00
5344;DHT22;2694;48.950;8.970;2022-08-06T16:51:39;26.20;48.70
5344;DHT22;2694;48.950;8.970;2022-08-06T16:56:35;26.00;47.50
5344;DHT22;2694;48.950;8.970;2022-08-06T17:03:58;25.90;48.00
5344;DHT22;2694;48.950;8.970;2022-08-06T17:06:25;25.80;48.60
5344;DHT22;2694;48.950;8.970;2022-08-06T17:08:54;25.70;47.80
5344;DHT22;2694;48.950;8.970;2022-08-06T17:11:21;25.60;48.80
5344;DHT22;2694;48.950;8.970;2022-08-06T17:13:48;25.60;48.70
5344;DHT22;2694;48.950;8.970;2022-08-06T17:16:15;25.50;48.50
5344;DHT22;2694;48.950;8.970;2022-08-06T17:18:42;25.40;48.40
5344;DHT22;2694;48.950;8.970;2022-08-06T17:21:10;25.40;49.10
5344;DHT22;2694;48.950;8.970;2022-08-06T17:23:37;25.30;48.90
5344;DHT22;2694;48.950;8.970;2022-08-06T17:26:04;25.30;49.20
5344;DHT22;2694;48.950;8.970;2022-08-06T17:28:31;25.30;49.10
5344;DHT22;2694;48.950;8.970;2022-08-06T17:30:58;25.20;48.50
5344;DHT22;2694;48.950;8.970;2022-08-06T17:33:25;25.20;48.70
5344;DHT22;2694;48.950;8.970;2022-08-06T17:35:51;25.10;48.40
5344;DHT22;2694;48.950;8.970;2022-08-06T17:38:20;25.10;48.80
5344;DHT22;2694;48.950;8.970;2022-08-06T17:40:46;25.10;48.60
5344;DHT22;2694;48.950;8.970;2022-08-06T17:43:13;25.00;48.60
5344;DHT22;2694;48.950;8.970;2022-08-06T17:45:40;24.90;47.00
5344;DHT22;2694;48.950;8.970;2022-08-06T17:48:07;24.90;47.60
5344;DHT22;2694;48.950;8.970;2022-08-06T17:50:34;24.70;47.00
5344;DHT22;2694;48.950;8.970;2022-08-06T17:53:01;24.70;47.20
5344;DHT22;2694;48.950;8.970;2022-08-06T17:55:29;24.70;47.70
5344;DHT22;2694;48.950;8.970;2022-08-06T17:57:56;24.50;46.70
5344;DHT22;2694;48.950;8.970;2022-08-06T18:00:23;24.40;47.20